createdAt,value
2023-05-05T00:00:32.295Z,6.45
2023-05-05T00:01:32.331Z,6.35
2023-05-05T00:02:32.426Z,6.42
2023-05-05T00:03:32.395Z,6.31
2023-05-05T00:04:32.440Z,6.26
2023-05-05T00:05:32.407Z,6.42
2023-05-05T00:06:32.420Z,6.30
2023-05-05T00:07:32.443Z,6.35
2023-05-05T00:08:32.463Z,6.33
2023-05-05T00:09:32.475Z,6.42
2023-05-05T00:10:32.515Z,6.25
2023-05-05T00:11:32.513Z,6.30
2023-05-05T00:12:32.584Z,6.30
2023-05-05T00:13:32.582Z,6.34
2023-05-05T00:14:32.584Z,6.27
2023-05-05T00:15:32.603Z,6.24
2023-05-05T00:16:32.650Z,6.17
2023-05-05T00:17:32.677Z,6.16
2023-05-05T00:18:32.697Z,6.21
2023-05-05T00:19:32.718Z,6.04
2023-05-05T00:20:32.738Z,6.08
2023-05-05T00:21:32.758Z,6.10
2023-05-05T00:22:32.784Z,6.21
2023-05-05T00:23:32.802Z,6.18
2023-05-05T00:24:32.869Z,6.21
2023-05-05T00:25:32.853Z,6.18
2023-05-05T00:26:32.881Z,6.19
2023-05-05T00:27:32.916Z,6.05
2023-05-05T00:28:32.940Z,6.09
2023-05-05T00:29:32.971Z,6.09
2023-05-05T00:30:32.967Z,6.06
2023-05-05T00:31:33.062Z,6.05
2023-05-05T00:32:33.046Z,6.05
2023-05-05T00:33:33.084Z,6.02
2023-05-05T00:34:33.059Z,5.97
2023-05-05T00:35:33.111Z,5.93
2023-05-05T00:36:33.189Z,5.94
2023-05-05T00:37:33.146Z,5.94
2023-05-05T00:38:33.111Z,5.95
2023-05-05T00:39:33.098Z,5.95
2023-05-05T00:40:33.177Z,5.97
2023-05-05T00:41:33.098Z,5.97
2023-05-05T00:42:33.025Z,5.97
2023-05-05T00:43:32.994Z,5.95
2023-05-05T00:44:32.986Z,5.77
2023-05-05T00:45:32.982Z,5.94
2023-05-05T00:46:33.013Z,5.94
2023-05-05T00:47:32.970Z,5.88
2023-05-05T00:48:32.908Z,5.90
2023-05-05T00:49:32.946Z,5.91
2023-05-05T00:50:32.867Z,5.83
2023-05-05T00:51:32.972Z,5.84
2023-05-05T00:52:32.940Z,5.79
2023-05-05T00:53:32.978Z,5.88
2023-05-05T00:54:33.016Z,5.76
2023-05-05T00:55:33.052Z,5.83
2023-05-05T00:56:33.080Z,5.81
2023-05-05T00:57:33.146Z,5.72
2023-05-05T00:58:33.152Z,5.68
2023-05-05T00:59:33.170Z,5.78
2023-05-05T01:00:33.246Z,5.77
2023-05-05T01:01:33.251Z,5.74
2023-05-05T01:02:33.335Z,5.72
2023-05-05T01:03:33.466Z,5.73
2023-05-05T01:04:33.331Z,5.69
2023-05-05T01:05:33.380Z,5.68
2023-05-05T01:06:33.404Z,5.63
2023-05-05T01:07:33.440Z,5.70
2023-05-05T01:08:33.489Z,5.70
2023-05-05T01:09:33.473Z,5.64
2023-05-05T01:10:33.515Z,5.63
2023-05-05T01:11:33.550Z,5.66
2023-05-05T01:12:33.604Z,5.57
2023-05-05T01:13:33.612Z,5.62
2023-05-05T01:14:33.654Z,5.56
2023-05-05T01:15:33.658Z,5.53
2023-05-05T01:16:33.746Z,5.51
2023-05-05T01:17:33.776Z,5.55
2023-05-05T01:18:33.768Z,5.54
2023-05-05T01:19:33.791Z,5.52
2023-05-05T01:20:33.809Z,5.54
2023-05-05T01:21:33.847Z,5.58
2023-05-05T01:22:33.907Z,5.48
2023-05-05T01:23:33.905Z,5.52
2023-05-05T01:24:33.944Z,5.48
2023-05-05T01:25:33.977Z,5.41
2023-05-05T01:26:34.013Z,5.48
2023-05-05T01:27:34.081Z,5.43
2023-05-05T01:28:34.082Z,5.37
2023-05-05T01:29:34.096Z,5.29
2023-05-05T01:30:34.146Z,5.45
2023-05-05T01:31:34.163Z,5.43
2023-05-05T01:32:34.261Z,5.33
2023-05-05T01:33:34.217Z,5.42
2023-05-05T01:34:34.263Z,5.31
2023-05-05T01:35:34.265Z,5.33
2023-05-05T01:36:34.317Z,5.36
2023-05-05T01:37:34.338Z,5.28
2023-05-05T01:38:34.369Z,5.23
2023-05-05T01:39:34.409Z,5.34
2023-05-05T01:40:34.447Z,5.21
2023-05-05T01:41:34.453Z,5.23
2023-05-05T01:42:34.442Z,5.24
2023-05-05T01:43:34.391Z,5.25
2023-05-05T01:44:34.359Z,5.26
2023-05-05T01:45:34.387Z,5.27
2023-05-05T01:46:34.316Z,5.24
2023-05-05T01:47:34.322Z,5.26
2023-05-05T01:48:34.254Z,5.27
2023-05-05T01:49:34.203Z,5.24
2023-05-05T01:50:34.175Z,5.25
2023-05-05T01:51:34.167Z,5.24
2023-05-05T01:52:34.119Z,5.26
2023-05-05T01:53:34.079Z,5.28
2023-05-05T01:54:34.051Z,5.34
2023-05-05T01:55:34.019Z,5.29
2023-05-05T01:56:33.991Z,5.28
2023-05-05T01:57:33.992Z,5.21
2023-05-05T01:58:33.973Z,5.23
2023-05-05T01:59:33.935Z,5.31
2023-05-05T02:00:33.893Z,5.17
2023-05-05T02:01:33.928Z,5.13
2023-05-05T02:02:33.967Z,5.19
2023-05-05T02:03:34.045Z,5.26
2023-05-05T02:04:34.004Z,5.10
2023-05-05T02:05:34.037Z,5.10
2023-05-05T02:06:34.053Z,5.03
2023-05-05T02:07:34.104Z,5.11
2023-05-05T02:08:34.134Z,5.19
2023-05-05T02:09:34.175Z,5.16
2023-05-05T02:10:34.186Z,4.99
2023-05-05T02:11:34.214Z,5.02
2023-05-05T02:12:34.297Z,5.12
2023-05-05T02:13:34.328Z,4.87
2023-05-05T02:14:34.322Z,5.11
2023-05-05T02:15:34.375Z,5.02
2023-05-05T02:16:34.385Z,4.99
2023-05-05T02:17:34.488Z,5.01
2023-05-05T02:18:34.449Z,4.98
2023-05-05T02:19:34.485Z,4.97
2023-05-05T02:20:34.524Z,4.89
2023-05-05T02:21:34.561Z,4.94
2023-05-05T02:22:34.614Z,4.95
2023-05-05T02:23:34.663Z,4.86
2023-05-05T02:24:34.704Z,4.85
2023-05-05T02:25:34.719Z,4.86
2023-05-05T02:26:34.764Z,4.83
2023-05-05T02:27:34.796Z,4.81
2023-05-05T02:28:34.835Z,4.87
2023-05-05T02:29:34.879Z,4.86
2023-05-05T02:30:34.903Z,4.82
2023-05-05T02:31:34.958Z,4.79
2023-05-05T02:32:35.016Z,4.75
2023-05-05T02:33:35.008Z,4.76
2023-05-05T02:34:35.038Z,4.81
2023-05-05T02:35:35.076Z,4.73
2023-05-05T02:36:35.126Z,4.74
2023-05-05T02:37:35.167Z,4.79
2023-05-05T02:38:35.206Z,4.67
2023-05-05T02:39:35.260Z,4.67
2023-05-05T02:40:35.272Z,4.70
2023-05-05T02:41:35.357Z,4.60
2023-05-05T02:42:35.364Z,4.69
2023-05-05T02:43:35.380Z,4.63
2023-05-05T02:44:35.426Z,4.65
2023-05-05T02:45:35.455Z,4.60
2023-05-05T02:46:35.516Z,4.61
2023-05-05T02:47:35.600Z,4.61
2023-05-05T02:48:35.576Z,4.63
2023-05-05T02:49:35.608Z,4.60
2023-05-05T02:50:35.657Z,4.63
2023-05-05T02:51:35.676Z,4.58
2023-05-05T02:52:35.728Z,4.64
2023-05-05T02:53:35.748Z,4.56
2023-05-05T02:54:35.801Z,4.58
2023-05-05T02:55:35.845Z,4.55
2023-05-05T02:56:35.869Z,4.51
2023-05-05T02:57:35.909Z,4.51
2023-05-05T02:58:35.944Z,4.51
2023-05-05T02:59:35.915Z,4.51
2023-05-05T03:00:35.894Z,4.53
2023-05-05T03:01:35.937Z,4.49
2023-05-05T03:02:35.925Z,4.55
2023-05-05T03:03:35.929Z,4.53
2023-05-05T03:04:35.818Z,4.44
2023-05-05T03:05:35.826Z,4.44
2023-05-05T03:06:35.797Z,4.45
2023-05-05T03:07:35.781Z,4.48
2023-05-05T03:08:35.745Z,4.52
2023-05-05T03:09:35.727Z,4.51
2023-05-05T03:10:35.715Z,4.57
2023-05-05T03:11:35.698Z,4.49
2023-05-05T03:12:35.681Z,4.54
2023-05-05T03:13:35.652Z,4.53
2023-05-05T03:14:35.621Z,4.55
2023-05-05T03:15:35.605Z,4.51
2023-05-05T03:16:35.672Z,4.50
2023-05-05T03:17:35.723Z,4.45
2023-05-05T03:18:35.750Z,4.53
2023-05-05T03:19:35.768Z,4.46
2023-05-05T03:20:35.809Z,4.44
2023-05-05T03:21:35.836Z,4.48
2023-05-05T03:22:35.872Z,4.47
2023-05-05T03:23:35.910Z,4.39
2023-05-05T03:24:36.048Z,4.36
2023-05-05T03:25:35.986Z,4.41
2023-05-05T03:26:36.046Z,4.44
2023-05-05T03:27:36.085Z,4.26
2023-05-05T03:28:36.127Z,4.31
2023-05-05T03:29:36.160Z,4.37
2023-05-05T03:30:36.213Z,4.33
2023-05-05T03:31:36.278Z,4.37
2023-05-05T03:32:36.353Z,4.27
2023-05-05T03:33:36.337Z,4.36
2023-05-05T03:34:36.400Z,4.32
2023-05-05T03:35:36.440Z,4.31
2023-05-05T03:36:36.487Z,4.28
2023-05-05T03:37:36.516Z,4.29
2023-05-05T03:38:36.560Z,4.29
2023-05-05T03:39:36.591Z,4.25
2023-05-05T03:40:43.406Z,4.23
2023-05-05T03:41:37.608Z,4.24
2023-05-05T03:42:36.592Z,4.25
2023-05-05T03:43:36.553Z,4.26
2023-05-05T03:44:36.540Z,4.26
2023-05-05T03:45:36.533Z,4.28
2023-05-05T03:46:36.491Z,4.27
2023-05-05T03:47:36.495Z,4.19
2023-05-05T03:48:36.428Z,4.31
2023-05-05T03:49:36.394Z,4.24
2023-05-05T03:50:36.419Z,4.16
2023-05-05T03:51:36.442Z,4.26
2023-05-05T03:52:36.484Z,4.16
2023-05-05T03:53:36.534Z,4.05
2023-05-05T03:54:36.568Z,3.94
2023-05-05T03:55:36.614Z,3.97
2023-05-05T03:56:36.655Z,4.02
2023-05-05T03:57:36.688Z,4.00
2023-05-05T03:58:36.738Z,3.97
2023-05-05T03:59:36.765Z,4.05
2023-05-05T04:00:36.814Z,4.05
2023-05-05T04:01:36.862Z,4.07
2023-05-05T04:02:36.958Z,4.04
2023-05-05T04:03:37.005Z,3.98
2023-05-05T04:04:36.967Z,4.04
2023-05-05T04:05:37.021Z,3.97
2023-05-05T04:06:37.060Z,3.94
2023-05-05T04:07:37.107Z,4.02
2023-05-05T04:08:37.146Z,3.97
2023-05-05T04:09:37.190Z,4.00
2023-05-05T04:10:37.228Z,3.99
2023-05-05T04:11:37.212Z,3.99
2023-05-05T04:12:37.248Z,3.99
2023-05-05T04:13:37.262Z,3.99
2023-05-05T04:14:37.151Z,3.97
2023-05-05T04:15:37.174Z,3.97
2023-05-05T04:16:37.121Z,4.00
2023-05-05T04:17:37.126Z,3.93
2023-05-05T04:18:37.069Z,3.99
2023-05-05T04:19:37.041Z,3.91
2023-05-05T04:20:37.023Z,3.92
2023-05-05T04:21:37.056Z,3.88
2023-05-05T04:22:37.105Z,3.93
2023-05-05T04:23:37.143Z,3.91
2023-05-05T04:24:37.208Z,3.91
2023-05-05T04:25:37.236Z,3.91
2023-05-05T04:26:37.295Z,3.96
2023-05-05T04:27:37.317Z,3.89
2023-05-05T04:28:37.361Z,3.92
2023-05-05T04:29:37.391Z,3.84
2023-05-05T04:30:37.420Z,3.89
2023-05-05T04:31:37.470Z,3.85
2023-05-05T04:32:37.468Z,3.83
2023-05-05T04:33:37.476Z,3.78
2023-05-05T04:34:37.499Z,3.82
2023-05-05T04:35:37.497Z,3.82
2023-05-05T04:36:37.476Z,3.79
2023-05-05T04:37:37.485Z,3.78
2023-05-05T04:38:37.552Z,3.83
2023-05-05T04:39:37.492Z,3.75
2023-05-05T04:40:37.516Z,3.73
2023-05-05T04:41:37.519Z,3.69
2023-05-05T04:42:37.560Z,3.76
2023-05-05T04:43:37.547Z,3.74
2023-05-05T04:44:37.560Z,3.72
2023-05-05T04:45:37.551Z,3.72
2023-05-05T04:46:37.612Z,3.64
2023-05-05T04:47:37.650Z,3.75
2023-05-05T04:48:37.585Z,3.75
2023-05-05T04:49:37.567Z,3.75
2023-05-05T04:50:37.527Z,3.70
2023-05-05T04:51:37.499Z,3.77
2023-05-05T04:52:37.497Z,3.71
2023-05-05T04:53:37.492Z,3.68
2023-05-05T04:54:37.431Z,3.68
2023-05-05T04:55:37.398Z,3.73
2023-05-05T04:56:37.398Z,3.75
2023-05-05T04:57:37.354Z,3.70
2023-05-05T04:58:37.369Z,3.66
2023-05-05T04:59:37.387Z,3.66
2023-05-05T05:00:37.416Z,3.67
2023-05-05T05:01:38.616Z,3.71
2023-05-05T05:02:37.650Z,3.66
2023-05-05T05:03:37.713Z,3.64
2023-05-05T05:04:37.620Z,3.62
2023-05-05T05:05:37.679Z,3.64
2023-05-05T05:06:37.695Z,3.61
2023-05-05T05:07:37.723Z,3.60
2023-05-05T05:08:37.730Z,3.54
2023-05-05T05:09:37.731Z,3.60
2023-05-05T05:10:37.700Z,3.60
2023-05-05T05:11:37.686Z,3.60
2023-05-05T05:12:37.681Z,3.61
2023-05-05T05:13:37.621Z,3.61
2023-05-05T05:14:37.579Z,3.56
2023-05-05T05:15:37.535Z,3.57
2023-05-05T05:16:37.562Z,3.57
2023-05-05T05:17:37.509Z,3.50
2023-05-05T05:18:37.472Z,3.49
2023-05-05T05:19:37.440Z,3.49
2023-05-05T05:20:37.414Z,3.49
2023-05-05T05:21:37.426Z,3.47
2023-05-05T05:22:37.414Z,3.51
2023-05-05T05:23:37.451Z,3.46
2023-05-05T05:24:37.632Z,3.50
2023-05-05T05:25:37.455Z,3.51
2023-05-05T05:26:37.381Z,3.50
2023-05-05T05:27:37.358Z,3.52
2023-05-05T05:28:37.353Z,3.50
2023-05-05T05:29:37.350Z,3.51
2023-05-05T05:30:37.290Z,3.52
2023-05-05T05:31:37.341Z,3.52
2023-05-05T05:32:37.274Z,3.56
2023-05-05T05:33:37.208Z,3.50
2023-05-05T05:34:37.203Z,3.52
2023-05-05T05:35:37.200Z,3.58
2023-05-05T05:36:37.117Z,3.70
2023-05-05T05:37:37.093Z,3.89
2023-05-05T05:38:37.117Z,3.97
2023-05-05T05:39:37.059Z,4.06
2023-05-05T05:40:37.044Z,4.46
2023-05-05T05:41:37.034Z,4.80
2023-05-05T05:42:37.064Z,5.00
2023-05-05T05:43:37.096Z,5.26
2023-05-05T05:44:37.069Z,5.28
2023-05-05T05:45:37.033Z,5.39
2023-05-05T05:46:37.052Z,5.31
2023-05-05T05:47:36.984Z,5.60
2023-05-05T05:48:37.000Z,6.36
2023-05-05T05:49:37.065Z,7.86
2023-05-05T05:50:36.890Z,10.60
2023-05-05T05:51:36.843Z,5.40
2023-05-05T05:52:36.816Z,5.95
2023-05-05T05:53:36.814Z,5.43
2023-05-05T05:54:36.749Z,6.10
2023-05-05T05:55:36.714Z,7.60
2023-05-05T05:56:36.682Z,10.54
2023-05-05T05:57:36.656Z,17.22
2023-05-05T05:58:36.647Z,18.68
2023-05-05T05:59:36.654Z,19.49
2023-05-05T06:00:36.549Z,21.88
2023-05-05T06:01:36.526Z,23.74
2023-05-05T06:02:36.579Z,25.11
2023-05-05T06:03:36.568Z,26.69
2023-05-05T06:04:36.633Z,26.67
2023-05-05T06:05:36.496Z,28.91
2023-05-05T06:06:36.512Z,30.29
2023-05-05T06:07:36.533Z,32.31
2023-05-05T06:08:36.562Z,33.43
2023-05-05T06:09:36.561Z,35.38
2023-05-05T06:10:36.580Z,37.54
2023-05-05T06:11:36.598Z,38.19
2023-05-05T06:12:36.646Z,41.87
2023-05-05T06:13:36.605Z,44.05
2023-05-05T06:14:36.599Z,44.68
2023-05-05T06:15:36.640Z,47.68
2023-05-05T06:16:36.677Z,49.93
2023-05-05T06:17:36.601Z,50.73
2023-05-05T06:18:36.608Z,51.49
2023-05-05T06:19:36.682Z,52.43
2023-05-05T06:20:36.623Z,57.36
2023-05-05T06:21:36.620Z,56.33
2023-05-05T06:22:36.608Z,59.59
2023-05-05T06:23:36.649Z,59.22
2023-05-05T06:24:36.630Z,60.70
2023-05-05T06:25:36.597Z,64.36
2023-05-05T06:26:36.664Z,66.24
2023-05-05T06:27:36.548Z,65.36
2023-05-05T06:28:36.573Z,69.31
2023-05-05T06:29:36.534Z,69.82
2023-05-05T06:30:36.494Z,70.93
2023-05-05T06:31:37.094Z,71.88
2023-05-05T06:32:36.495Z,72.75
2023-05-05T06:33:36.474Z,73.33
2023-05-05T06:34:36.379Z,74.81
2023-05-05T06:35:36.343Z,78.36
2023-05-05T06:36:36.410Z,78.70
2023-05-05T06:37:36.309Z,81.57
2023-05-05T06:38:36.276Z,82.34
2023-05-05T06:39:36.231Z,84.94
2023-05-05T06:40:36.229Z,86.94
2023-05-05T06:41:36.241Z,88.69
2023-05-05T06:42:36.195Z,90.59
2023-05-05T06:43:36.188Z,94.90
2023-05-05T06:44:36.189Z,96.85
2023-05-05T06:45:36.157Z,95.92
2023-05-05T06:46:36.172Z,93.10
2023-05-05T06:47:36.217Z,90.70
2023-05-05T06:48:36.115Z,86.99
2023-05-05T06:49:36.146Z,81.95
2023-05-05T06:50:36.066Z,76.97
2023-05-05T06:51:36.017Z,71.70
2023-05-05T06:52:36.030Z,67.31
2023-05-05T06:53:36.075Z,63.21
2023-05-05T06:54:35.989Z,57.42
2023-05-05T06:55:35.932Z,55.31
2023-05-05T06:56:35.902Z,51.15
2023-05-05T06:57:35.885Z,47.90
2023-05-05T06:58:35.868Z,46.37
2023-05-05T06:59:35.826Z,43.03
2023-05-05T07:00:35.901Z,41.05
2023-05-05T07:01:35.803Z,37.51
2023-05-05T07:02:35.744Z,36.04
2023-05-05T07:03:35.764Z,33.92
2023-05-05T07:04:35.702Z,31.80
2023-05-05T07:05:35.680Z,29.96
2023-05-05T07:06:35.642Z,29.50
2023-05-05T07:07:35.603Z,28.87
2023-05-05T07:08:35.584Z,26.88
2023-05-05T07:09:35.616Z,25.49
2023-05-05T07:10:35.547Z,24.63
2023-05-05T07:11:35.522Z,24.96
2023-05-05T07:12:35.505Z,24.22
2023-05-05T07:13:35.474Z,22.32
2023-05-05T07:14:35.456Z,21.14
2023-05-05T07:15:35.435Z,20.59
2023-05-05T07:16:35.502Z,20.69
2023-05-05T07:17:35.486Z,19.33
2023-05-05T07:18:35.400Z,18.84
2023-05-05T07:19:35.370Z,18.39
2023-05-05T07:20:35.332Z,18.95
2023-05-05T07:21:35.331Z,17.44
2023-05-05T07:22:35.316Z,17.34
2023-05-05T07:23:35.281Z,17.63
2023-05-05T07:24:35.384Z,16.91
2023-05-05T07:25:35.396Z,16.49
2023-05-05T07:26:35.252Z,15.65
2023-05-05T07:27:35.241Z,15.66
2023-05-05T07:28:35.259Z,15.39
2023-05-05T07:29:35.166Z,15.03
2023-05-05T07:30:35.151Z,14.59
2023-05-05T07:31:35.157Z,14.57
2023-05-05T07:32:35.248Z,13.63
2023-05-05T07:33:35.096Z,13.83
2023-05-05T07:34:35.070Z,13.62
2023-05-05T07:35:35.062Z,13.80
2023-05-05T07:36:35.039Z,13.31
2023-05-05T07:37:35.016Z,12.82
2023-05-05T07:38:34.970Z,12.85
2023-05-05T07:39:34.978Z,12.88
2023-05-05T07:40:34.941Z,12.97
2023-05-05T07:41:34.997Z,13.39
2023-05-05T07:42:34.881Z,7.85
2023-05-05T07:43:34.856Z,6.70
2023-05-05T07:44:34.816Z,4.51
2023-05-05T07:45:34.835Z,5.56
2023-05-05T07:46:34.849Z,5.93
2023-05-05T07:47:34.775Z,4.90
2023-05-05T07:48:41.900Z,2.47
2023-05-05T07:49:34.652Z,2.23
2023-05-05T07:51:53.670Z,0.50
2023-05-05T07:52:59.355Z,0.50
2023-05-05T07:53:54.419Z,0.50
2023-05-05T07:54:53.373Z,0.50
2023-05-05T07:55:53.332Z,0.50
2023-05-05T07:56:53.382Z,0.50
2023-05-05T07:57:53.266Z,0.50
2023-05-05T07:58:53.311Z,0.50
2023-05-05T07:59:53.349Z,0.50
2023-05-05T08:00:53.230Z,0.50
2023-05-05T08:01:54.947Z,0.46
2023-05-05T08:02:53.257Z,0.40
2023-05-05T08:03:53.174Z,0.41
2023-05-05T08:04:53.092Z,0.34
2023-05-05T08:05:53.070Z,0.34
2023-05-05T08:06:53.049Z,0.38
2023-05-05T08:07:53.018Z,0.53
2023-05-05T08:08:52.991Z,0.66
2023-05-05T08:09:52.950Z,0.71
2023-05-05T08:10:53.010Z,0.74
2023-05-05T08:11:52.977Z,0.61
2023-05-05T08:12:53.200Z,0.53
2023-05-05T08:13:53.021Z,0.44
2023-05-05T08:14:53.056Z,0.42
2023-05-05T08:15:53.116Z,0.45
2023-05-05T08:16:53.125Z,0.50
2023-05-05T08:17:53.118Z,0.50
2023-05-05T08:18:53.172Z,0.54
2023-05-05T08:19:53.137Z,0.69
2023-05-05T08:20:53.059Z,1.07
2023-05-05T08:21:52.999Z,1.93
2023-05-05T08:22:52.992Z,2.98
2023-05-05T08:23:52.972Z,3.02
2023-05-05T08:24:52.964Z,3.24
2023-05-05T08:25:52.910Z,3.52
2023-05-05T08:26:52.888Z,4.38
2023-05-05T08:27:52.866Z,6.09
2023-05-05T08:28:52.908Z,6.79
2023-05-05T08:29:52.815Z,8.83
2023-05-05T08:30:52.871Z,9.91
2023-05-05T08:31:52.798Z,4.30
2023-05-05T08:32:52.906Z,3.96
2023-05-05T08:33:52.747Z,5.13
2023-05-05T08:34:52.677Z,3.92
2023-05-05T08:35:52.629Z,3.54
2023-05-05T08:36:52.603Z,3.88
2023-05-05T08:37:52.600Z,2.70
2023-05-05T08:38:52.548Z,4.96
2023-05-05T08:39:52.647Z,6.54
2023-05-05T08:40:52.513Z,7.60
2023-05-05T08:41:52.480Z,10.01
2023-05-05T08:42:52.444Z,13.56
2023-05-05T08:43:52.417Z,19.52
2023-05-05T08:44:52.555Z,19.61
2023-05-05T08:45:52.433Z,14.60
2023-05-05T08:46:52.449Z,19.87
2023-05-05T08:47:52.375Z,19.26
2023-05-05T08:48:52.285Z,17.19
2023-05-05T08:49:52.251Z,13.92
2023-05-05T08:50:52.321Z,12.76
2023-05-05T08:51:52.206Z,16.20
2023-05-05T08:52:52.196Z,19.15
2023-05-05T08:53:52.212Z,18.21
2023-05-05T08:54:52.088Z,9.04
2023-05-05T08:55:52.060Z,9.76
2023-05-05T08:56:52.090Z,10.45
2023-05-05T08:57:51.990Z,9.20
2023-05-05T08:58:51.990Z,4.60
2023-05-05T08:59:51.962Z,4.28
2023-05-05T09:00:52.187Z,5.72
2023-05-05T09:01:51.899Z,6.44
2023-05-05T09:02:52.056Z,7.76
2023-05-05T09:03:52.702Z,7.80
2023-05-05T09:04:51.840Z,8.07
2023-05-05T09:05:51.827Z,8.94
2023-05-05T09:06:51.762Z,10.91
2023-05-05T09:07:51.728Z,16.75
2023-05-05T09:08:51.719Z,19.77
2023-05-05T09:09:51.671Z,19.47
2023-05-05T09:10:51.641Z,20.51
2023-05-05T09:11:51.682Z,22.92
2023-05-05T09:12:51.722Z,26.14
2023-05-05T09:13:51.622Z,25.81
2023-05-05T09:14:51.500Z,25.33
2023-05-05T09:15:51.471Z,25.66
2023-05-05T09:16:51.552Z,25.61
2023-05-05T09:17:51.489Z,29.66
2023-05-05T09:18:51.377Z,34.64
2023-05-05T09:19:51.341Z,44.09
2023-05-05T09:20:51.312Z,52.75
2023-05-05T09:21:51.281Z,58.80
2023-05-05T09:22:51.248Z,57.92
2023-05-05T09:23:51.211Z,53.01
2023-05-05T09:24:51.184Z,50.33
2023-05-05T09:25:51.174Z,49.65
2023-05-05T09:26:51.143Z,56.13
2023-05-05T09:27:51.126Z,65.55
2023-05-05T09:28:51.084Z,69.25
2023-05-05T09:29:51.060Z,71.04
2023-05-05T09:30:51.093Z,62.14
2023-05-05T09:31:51.001Z,48.43
2023-05-05T09:32:51.219Z,46.63
2023-05-05T09:33:50.930Z,44.85
2023-05-05T09:34:50.955Z,39.84
2023-05-05T09:35:50.890Z,38.76
2023-05-05T09:36:50.861Z,37.19
2023-05-05T09:37:50.907Z,42.91
2023-05-05T09:38:50.910Z,40.43
2023-05-05T09:39:50.814Z,40.60
2023-05-05T09:40:50.737Z,43.57
2023-05-05T09:41:50.706Z,49.65
2023-05-05T09:42:50.705Z,62.92
2023-05-05T09:43:50.735Z,85.66
2023-05-05T09:44:50.617Z,90.44
2023-05-05T09:45:50.591Z,96.11
2023-05-05T09:46:50.952Z,98.66
2023-05-05T09:47:50.592Z,104.10
2023-05-05T09:48:50.648Z,104.30
2023-05-05T09:49:50.473Z,109.57
2023-05-05T09:50:50.482Z,110.39
2023-05-05T09:51:50.506Z,110.83
2023-05-05T09:52:50.526Z,113.76
2023-05-05T09:53:50.602Z,117.29
2023-05-05T09:54:50.627Z,113.68
2023-05-05T09:55:50.729Z,107.63
2023-05-05T09:56:50.794Z,107.67
2023-05-05T09:57:50.736Z,116.14
2023-05-05T09:58:50.727Z,117.46
2023-05-05T09:59:50.689Z,104.98
2023-05-05T10:00:50.668Z,112.12
2023-05-05T10:01:50.763Z,115.57
2023-05-05T10:02:50.649Z,120.64
2023-05-05T10:03:50.567Z,124.81
2023-05-05T10:04:50.654Z,122.98
2023-05-05T10:05:50.576Z,120.06
2023-05-05T10:06:50.483Z,123.18
2023-05-05T10:07:50.453Z,115.88
2023-05-05T10:08:50.465Z,108.69
2023-05-05T10:09:50.501Z,101.96
2023-05-05T10:10:50.553Z,101.00
2023-05-05T10:11:50.552Z,99.28
2023-05-05T10:12:50.574Z,91.75
2023-05-05T10:13:50.591Z,82.91
2023-05-05T10:14:50.677Z,74.17
2023-05-05T10:15:53.255Z,74.07
2023-05-05T10:16:50.524Z,71.86
2023-05-05T10:18:02.286Z,76.74
2023-05-05T10:18:51.485Z,74.80
2023-05-05T10:19:50.533Z,77.75
2023-05-05T10:20:50.491Z,84.85
2023-05-05T10:21:50.365Z,94.32
2023-05-05T10:22:50.292Z,112.82
2023-05-05T10:23:50.271Z,119.65
2023-05-05T10:24:50.234Z,128.76
2023-05-05T10:25:50.191Z,133.28
2023-05-05T10:26:50.268Z,132.16
2023-05-05T10:27:50.167Z,123.38
2023-05-05T10:28:50.101Z,121.99
2023-05-05T10:29:50.112Z,123.42
2023-05-05T10:30:50.141Z,124.91
2023-05-05T10:31:50.115Z,119.66
2023-05-05T10:32:56.066Z,120.51
2023-05-05T10:33:51.097Z,120.83
2023-05-05T10:34:50.003Z,124.22
2023-05-05T10:35:49.976Z,136.16
2023-05-05T10:36:50.058Z,163.56
2023-05-05T10:37:49.894Z,163.59
2023-05-05T10:38:49.891Z,33.77
2023-05-05T10:39:49.828Z,14.55
2023-05-05T10:40:49.808Z,31.74
2023-05-05T10:41:49.763Z,33.07
2023-05-05T10:42:49.726Z,6.41
2023-05-05T10:43:49.699Z,3.98
2023-05-05T10:44:49.684Z,1.10
2023-05-05T10:45:49.684Z,1.92
2023-05-05T10:46:49.618Z,1.16
2023-05-05T10:47:49.701Z,1.52
2023-05-05T10:48:49.673Z,1.75
2023-05-05T10:49:49.679Z,2.05
2023-05-05T10:50:49.683Z,2.14
2023-05-05T10:51:49.678Z,2.66
2023-05-05T10:52:49.696Z,3.25
2023-05-05T10:53:49.695Z,3.28
2023-05-05T10:54:49.618Z,3.64
2023-05-05T10:55:49.603Z,5.35
2023-05-05T10:56:49.555Z,9.12
2023-05-05T10:57:49.520Z,18.73
2023-05-05T10:58:59.851Z,22.16
2023-05-05T10:59:50.447Z,22.28
2023-05-05T11:00:49.447Z,24.70
2023-05-05T11:01:49.455Z,29.04
2023-05-05T11:02:49.360Z,36.41
2023-05-05T11:03:49.330Z,47.93
2023-05-05T11:04:49.228Z,52.33
2023-05-05T11:05:49.191Z,56.26
2023-05-05T11:06:49.165Z,54.79
2023-05-05T11:07:49.153Z,55.04
2023-05-05T11:08:49.124Z,56.33
2023-05-05T11:09:49.022Z,59.53
2023-05-05T11:10:49.025Z,64.17
2023-05-05T11:11:48.954Z,55.32
2023-05-05T11:12:48.943Z,57.24
2023-05-05T11:13:48.887Z,62.30
2023-05-05T11:14:48.860Z,71.16
2023-05-05T11:15:48.761Z,86.53
2023-05-05T11:16:48.770Z,84.90
2023-05-05T11:17:48.840Z,85.03
2023-05-05T11:18:48.645Z,86.55
2023-05-05T11:19:48.667Z,95.77
2023-05-05T11:20:48.638Z,115.68
2023-05-05T11:21:48.523Z,157.90
2023-05-05T11:22:48.513Z,170.13
2023-05-05T11:23:48.479Z,171.70
2023-05-05T11:24:48.468Z,169.79
2023-05-05T11:25:48.385Z,159.55
2023-05-05T11:26:48.318Z,177.26
2023-05-05T11:27:48.295Z,190.65
2023-05-05T11:28:48.276Z,182.48
2023-05-05T11:29:50.253Z,204.26
2023-05-05T11:30:48.201Z,186.72
2023-05-05T11:31:48.132Z,161.14
2023-05-05T11:32:48.154Z,161.64
2023-05-05T11:33:48.085Z,160.93
2023-05-05T11:34:48.002Z,152.56
2023-05-05T11:35:48.035Z,145.16
2023-05-05T11:36:47.937Z,134.59
2023-05-05T11:37:47.909Z,117.47
2023-05-05T11:38:47.870Z,107.01
2023-05-05T11:39:47.830Z,106.71
2023-05-05T11:40:47.769Z,105.31
2023-05-05T11:41:47.749Z,103.00
2023-05-05T11:42:47.699Z,101.61
2023-05-05T11:43:47.666Z,99.97
2023-05-05T11:44:47.631Z,92.61
2023-05-05T11:45:47.595Z,91.43
2023-05-05T11:46:47.563Z,81.33
2023-05-05T11:47:47.528Z,71.89
2023-05-05T11:48:47.462Z,69.31
2023-05-05T11:49:47.435Z,62.77
2023-05-05T11:50:47.397Z,59.68
2023-05-05T11:51:47.367Z,56.05
2023-05-05T11:52:47.392Z,55.46
2023-05-05T11:53:47.297Z,53.16
2023-05-05T11:54:47.305Z,52.62
2023-05-05T11:55:47.258Z,54.17
2023-05-05T11:56:47.248Z,53.52
2023-05-05T11:57:47.170Z,53.49
2023-05-05T11:58:47.134Z,48.78
2023-05-05T11:59:48.378Z,45.45
2023-05-05T12:00:47.047Z,44.50
2023-05-05T12:01:47.017Z,46.85
2023-05-05T12:02:47.028Z,47.45
2023-05-05T12:03:47.090Z,47.48
2023-05-05T12:04:47.039Z,47.51
2023-05-05T12:05:46.884Z,47.76
2023-05-05T12:06:46.845Z,46.55
2023-05-05T12:07:46.816Z,44.63
2023-05-05T12:08:46.777Z,44.18
2023-05-05T12:09:46.756Z,43.31
2023-05-05T12:10:46.703Z,43.21
2023-05-05T12:11:46.683Z,43.35
2023-05-05T12:12:46.772Z,42.63
2023-05-05T12:13:46.638Z,42.63
2023-05-05T12:14:46.562Z,41.81
2023-05-05T12:15:46.588Z,41.18
2023-05-05T12:16:46.554Z,41.18
2023-05-05T12:17:46.546Z,41.42
2023-05-05T12:18:46.420Z,39.49
2023-05-05T12:19:46.421Z,38.64
2023-05-05T12:20:46.400Z,37.24
2023-05-05T12:21:46.448Z,37.16
2023-05-05T12:22:46.393Z,37.30
2023-05-05T12:23:46.409Z,36.91
2023-05-05T12:24:46.401Z,36.81
2023-05-05T12:25:46.396Z,35.83
2023-05-05T12:26:46.390Z,35.33
2023-05-05T12:27:46.408Z,34.29
2023-05-05T12:28:46.465Z,33.05
2023-05-05T12:29:46.407Z,36.31
2023-05-05T12:30:46.426Z,35.28
2023-05-05T12:31:46.459Z,35.18
2023-05-05T12:32:46.498Z,33.70
2023-05-05T12:33:46.424Z,32.48
2023-05-05T12:34:46.442Z,31.53
2023-05-05T12:35:46.452Z,30.99
2023-05-05T12:36:46.431Z,30.97
2023-05-05T12:37:46.479Z,31.17
2023-05-05T12:38:46.447Z,31.36
2023-05-05T12:39:46.449Z,31.76
2023-05-05T12:40:46.481Z,30.77
2023-05-05T12:41:46.446Z,31.45
2023-05-05T12:42:46.516Z,30.38
2023-05-05T12:43:46.449Z,29.46
2023-05-05T12:44:46.425Z,29.95
2023-05-05T12:45:46.534Z,30.12
2023-05-05T12:46:46.440Z,29.58
2023-05-05T12:47:46.473Z,28.87
2023-05-05T12:48:48.365Z,28.43
2023-05-05T12:49:46.438Z,27.61
2023-05-05T12:50:46.463Z,28.19
2023-05-05T12:51:46.431Z,27.22
2023-05-05T12:52:46.433Z,25.60
2023-05-05T12:53:46.444Z,24.18
2023-05-05T12:54:46.446Z,22.63
2023-05-05T12:55:46.443Z,21.79
2023-05-05T12:56:46.440Z,22.54
2023-05-05T12:57:46.435Z,21.99
2023-05-05T12:58:46.426Z,21.22
2023-05-05T12:59:46.413Z,21.42
2023-05-05T13:00:46.540Z,22.48
2023-05-05T13:01:46.486Z,23.28
2023-05-05T13:02:46.465Z,24.05
2023-05-05T13:05:05.238Z,0.50
2023-05-05T13:06:05.226Z,0.50
2023-05-05T13:07:05.205Z,0.50